sensor_id;sensor_type;location;lat;lon;timestamp;pressure;altitude;pressure_sealevel;temperature
22269;BMP280;11303;50.772;19.670;2024-03-02T00:00:41;98323.22;;;5.66
22269;BMP280;11303;50.772;19.670;2024-03-02T00:02:43;98321.72;;;5.65
22269;BMP280;11303;50.772;19.670;2024-03-02T00:04:45;98317.31;;;5.66
22269;BMP280;11303;50.772;19.670;2024-03-02T00:06:47;98310.34;;;5.66
22269;BMP280;11303;50.772;19.670;2024-03-02T00:08:49;98304.78;;;5.64
22269;BMP280;11303;50.772;19.670;2024-03-02T00:10:52;98308.41;;;5.63
22269;BMP280;11303;50.772;19.670;2024-03-02T00:12:57;98302.19;;;5.64
22269;BMP280;11303;50.772;19.670;2024-03-02T00:14:59;98313.69;;;5.67
22269;BMP280;11303;50.772;19.670;2024-03-02T00:17:04;98310.78;;;5.68
22269;BMP280;11303;50.772;19.670;2024-03-02T00:19:05;98314.56;;;5.71
22269;BMP280;11303;50.772;19.670;2024-03-02T00:21:08;98316.09;;;5.72
22269;BMP280;11303;50.772;19.670;2024-03-02T00:23:16;98322.75;;;5.73
22269;BMP280;11303;50.772;19.670;2024-03-02T00:25:18;98316.81;;;5.73
22269;BMP280;11303;50.772;19.670;2024-03-02T00:27:20;98313.94;;;5.74
22269;BMP280;11303;50.772;19.670;2024-03-02T00:29:22;98313.94;;;5.74
22269;BMP280;11303;50.772;19.670;2024-03-02T00:31:23;98321.38;;;5.76
22269;BMP280;11303;50.772;19.670;2024-03-02T00:33:30;98319.25;;;5.78
22269;BMP280;11303;50.772;19.670;2024-03-02T00:35:33;98317.72;;;5.77
22269;BMP280;11303;50.772;19.670;2024-03-02T00:37:34;98323.63;;;5.77
22269;BMP280;11303;50.772;19.670;2024-03-02T00:39:36;98313.31;;;5.77
22269;BMP280;11303;50.772;19.670;2024-03-02T00:41:40;98322.59;;;5.78
22269;BMP280;11303;50.772;19.670;2024-03-02T00:43:47;98325.91;;;5.79
22269;BMP280;11303;50.772;19.670;2024-03-02T00:45:49;98325.16;;;5.78
22269;BMP280;11303;50.772;19.670;2024-03-02T00:47:52;98320.63;;;5.75
22269;BMP280;11303;50.772;19.670;2024-03-02T00:49:54;98322.28;;;5.71
22269;BMP280;11303;50.772;19.670;2024-03-02T00:51:55;98316.56;;;5.65
22269;BMP280;11303;50.772;19.670;2024-03-02T00:54:00;98321.78;;;5.57
22269;BMP280;11303;50.772;19.670;2024-03-02T00:56:02;98326.69;;;5.49
22269;BMP280;11303;50.772;19.670;2024-03-02T00:58:04;98319.13;;;5.44
22269;BMP280;11303;50.772;19.670;2024-03-02T01:00:06;98317.03;;;5.38
22269;BMP280;11303;50.772;19.670;2024-03-02T01:02:11;98322.03;;;5.34
22269;BMP280;11303;50.772;19.670;2024-03-02T01:04:12;98320.56;;;5.33
22269;BMP280;11303;50.772;19.670;2024-03-02T01:06:16;98322.78;;;5.35
22269;BMP280;11303;50.772;19.670;2024-03-02T01:08:17;98314.44;;;5.38
22269;BMP280;11303;50.772;19.670;2024-03-02T01:10:19;98316.25;;;5.37
22269;BMP280;11303;50.772;19.670;2024-03-02T01:12:21;98310.34;;;5.37
22269;BMP280;11303;50.772;19.670;2024-03-02T01:14:23;98310.66;;;5.35
22269;BMP280;11303;50.772;19.670;2024-03-02T01:16:24;98305.09;;;5.33
22269;BMP280;11303;50.772;19.670;2024-03-02T01:18:26;98303.00;;;5.26
22269;BMP280;11303;50.772;19.670;2024-03-02T01:20:28;98305.41;;;5.23
22269;BMP280;11303;50.772;19.670;2024-03-02T01:22:30;98297.25;;;5.21
22269;BMP280;11303;50.772;19.670;2024-03-02T01:24:31;98302.38;;;5.21
22269;BMP280;11303;50.772;19.670;2024-03-02T01:26:33;98292.28;;;5.16
22269;BMP280;11303;50.772;19.670;2024-03-02T01:28:34;98293.94;;;5.11
22269;BMP280;11303;50.772;19.670;2024-03-02T01:30:36;98294.25;;;5.10
22269;BMP280;11303;50.772;19.670;2024-03-02T01:32:38;98294.56;;;5.08
22269;BMP280;11303;50.772;19.670;2024-03-02T01:34:40;98292.28;;;5.07
22269;BMP280;11303;50.772;19.670;2024-03-02T01:36:41;98295.16;;;5.05
22269;BMP280;11303;50.772;19.670;2024-03-02T01:38:43;98294.44;;;5.05
22269;BMP280;11303;50.772;19.670;2024-03-02T01:40:45;98281.38;;;5.01
22269;BMP280;11303;50.772;19.670;2024-03-02T01:42:46;98278.50;;;5.03
22269;BMP280;11303;50.772;19.670;2024-03-02T01:44:48;98274.88;;;5.04
22269;BMP280;11303;50.772;19.670;2024-03-02T01:46:50;98274.69;;;5.09
22269;BMP280;11303;50.772;19.670;2024-03-02T01:48:52;98279.09;;;5.08
22269;BMP280;11303;50.772;19.670;2024-03-02T01:50:53;98281.97;;;5.07
22269;BMP280;11303;50.772;19.670;2024-03-02T01:52:56;98282.59;;;5.04
22269;BMP280;11303;50.772;19.670;2024-03-02T01:54:58;98275.06;;;4.99
22269;BMP280;11303;50.772;19.670;2024-03-02T01:56:59;98282.03;;;4.98
22269;BMP280;11303;50.772;19.670;2024-03-02T01:59:01;98282.31;;;4.97
22269;BMP280;11303;50.772;19.670;2024-03-02T02:01:03;98269.44;;;4.97
22269;BMP280;11303;50.772;19.670;2024-03-02T02:03:05;98273.09;;;4.96
22269;BMP280;11303;50.772;19.670;2024-03-02T02:05:08;98270.84;;;4.94
22269;BMP280;11303;50.772;19.670;2024-03-02T02:07:10;98269.00;;;4.94
22269;BMP280;11303;50.772;19.670;2024-03-02T02:09:12;98272.03;;;4.97
22269;BMP280;11303;50.772;19.670;2024-03-02T02:11:15;98260.97;;;4.96
22269;BMP280;11303;50.772;19.670;2024-03-02T02:13:17;98264.59;;;4.95
22269;BMP280;11303;50.772;19.670;2024-03-02T02:17:24;98258.25;;;4.92
22269;BMP280;11303;50.772;19.670;2024-03-02T02:19:25;98250.38;;;4.89
22269;BMP280;11303;50.772;19.670;2024-03-02T02:21:27;98239.94;;;4.85
22269;BMP280;11303;50.772;19.670;2024-03-02T02:23:29;98232.81;;;4.82
22269;BMP280;11303;50.772;19.670;2024-03-02T02:25:30;98236.44;;;4.81
22269;BMP280;11303;50.772;19.670;2024-03-02T02:27:32;98231.63;;;4.80
22269;BMP280;11303;50.772;19.670;2024-03-02T02:29:34;98233.88;;;4.81
22269;BMP280;11303;50.772;19.670;2024-03-02T02:31:37;98233.78;;;4.78
22269;BMP280;11303;50.772;19.670;2024-03-02T02:33:42;98244.22;;;4.72
22269;BMP280;11303;50.772;19.670;2024-03-02T02:35:44;98236.03;;;4.70
22269;BMP280;11303;50.772;19.670;2024-03-02T02:37:47;98239.22;;;4.67
22269;BMP280;11303;50.772;19.670;2024-03-02T02:39:48;98243.19;;;4.65
22269;BMP280;11303;50.772;19.670;2024-03-02T02:41:50;98227.75;;;4.65
22269;BMP280;11303;50.772;19.670;2024-03-02T02:43:51;98235.75;;;4.63
22269;BMP280;11303;50.772;19.670;2024-03-02T02:45:53;98238.03;;;4.65
22269;BMP280;11303;50.772;19.670;2024-03-02T02:47:55;98238.78;;;4.65
22269;BMP280;11303;50.772;19.670;2024-03-02T02:49:56;98235.75;;;4.63
22269;BMP280;11303;50.772;19.670;2024-03-02T02:51:58;98238.78;;;4.65
22269;BMP280;11303;50.772;19.670;2024-03-02T02:53:59;98236.97;;;4.66
22269;BMP280;11303;50.772;19.670;2024-03-02T02:56:01;98242.28;;;4.69
22269;BMP280;11303;50.772;19.670;2024-03-02T02:58:03;98238.31;;;4.72
22269;BMP280;11303;50.772;19.670;2024-03-02T03:00:10;98235.91;;;4.75
22269;BMP280;11303;50.772;19.670;2024-03-02T03:02:12;98237.69;;;4.75
22269;BMP280;11303;50.772;19.670;2024-03-02T03:04:13;98234.50;;;4.78
22269;BMP280;11303;50.772;19.670;2024-03-02T03:06:15;98226.94;;;4.82
22269;BMP280;11303;50.772;19.670;2024-03-02T03:08:17;98236.16;;;4.83
22269;BMP280;11303;50.772;19.670;2024-03-02T03:10:18;98237.66;;;4.84
22269;BMP280;11303;50.772;19.670;2024-03-02T03:12:22;98240.69;;;4.86
22269;BMP280;11303;50.772;19.670;2024-03-02T03:14:23;98242.66;;;4.89
22269;BMP280;11303;50.772;19.670;2024-03-02T03:16:25;98244.59;;;4.92
22269;BMP280;11303;50.772;19.670;2024-03-02T03:18:27;98241.72;;;4.93
22269;BMP280;11303;50.772;19.670;2024-03-02T03:20:28;98251.13;;;4.98
22269;BMP280;11303;50.772;19.670;2024-03-02T03:22:30;98246.41;;;5.00
22269;BMP280;11303;50.772;19.670;2024-03-02T03:24:36;98243.97;;;5.04
22269;BMP280;11303;50.772;19.670;2024-03-02T03:26:38;98240.78;;;5.07
22269;BMP280;11303;50.772;19.670;2024-03-02T03:28:39;98235.75;;;5.10
22269;BMP280;11303;50.772;19.670;2024-03-02T03:30:41;98232.56;;;5.13
22269;BMP280;11303;50.772;19.670;2024-03-02T03:32:43;98228.59;;;5.16
22269;BMP280;11303;50.772;19.670;2024-03-02T03:34:44;98224.97;;;5.17
22269;BMP280;11303;50.772;19.670;2024-03-02T03:36:46;98229.03;;;5.18
22269;BMP280;11303;50.772;19.670;2024-03-02T03:38:48;98227.66;;;5.21
22269;BMP280;11303;50.772;19.670;2024-03-02T03:40:49;98234.03;;;5.23
22269;BMP280;11303;50.772;19.670;2024-03-02T03:42:51;98236.75;;;5.27
22269;BMP280;11303;50.772;19.670;2024-03-02T03:44:53;98237.47;;;5.27
22269;BMP280;11303;50.772;19.670;2024-03-02T03:46:54;98233.06;;;5.28
22269;BMP280;11303;50.772;19.670;2024-03-02T03:48:56;98233.06;;;5.28
22269;BMP280;11303;50.772;19.670;2024-03-02T03:50:58;98239.75;;;5.29
22269;BMP280;11303;50.772;19.670;2024-03-02T03:52:59;98235.34;;;5.29
22269;BMP280;11303;50.772;19.670;2024-03-02T03:55:01;98235.34;;;5.29
22269;BMP280;11303;50.772;19.670;2024-03-02T03:57:03;98241.59;;;5.28
22269;BMP280;11303;50.772;19.670;2024-03-02T03:59:05;98242.31;;;5.29
22269;BMP280;11303;50.772;19.670;2024-03-02T04:01:06;98246.44;;;5.30
22269;BMP280;11303;50.772;19.670;2024-03-02T04:03:08;98235.34;;;5.29
22269;BMP280;11303;50.772;19.670;2024-03-02T04:05:09;98245.66;;;5.29
22269;BMP280;11303;50.772;19.670;2024-03-02T04:07:13;98234.59;;;5.29
22269;BMP280;11303;50.772;19.670;2024-03-02T04:09:14;98241.28;;;5.30
22269;BMP280;11303;50.772;19.670;2024-03-02T04:11:16;98245.66;;;5.29
22269;BMP280;11303;50.772;19.670;2024-03-02T04:13:18;98228.38;;;5.30
22269;BMP280;11303;50.772;19.670;2024-03-02T04:15:19;98234.91;;;5.27
22269;BMP280;11303;50.772;19.670;2024-03-02T04:17:21;98232.03;;;5.29
22269;BMP280;11303;50.772;19.670;2024-03-02T04:19:22;98233.53;;;5.30
22269;BMP280;11303;50.772;19.670;2024-03-02T04:21:24;98221.28;;;5.27
22269;BMP280;11303;50.772;19.670;2024-03-02T04:23:26;98221.59;;;5.25
22269;BMP280;11303;50.772;19.670;2024-03-02T04:25:27;98218.56;;;5.23
22269;BMP280;11303;50.772;19.670;2024-03-02T04:27:29;98211.47;;;5.20
22269;BMP280;11303;50.772;19.670;2024-03-02T04:29:31;98217.22;;;5.17
22269;BMP280;11303;50.772;19.670;2024-03-02T04:31:32;98213.47;;;5.15
22269;BMP280;11303;50.772;19.670;2024-03-02T04:33:34;98218.94;;;5.13
22269;BMP280;11303;50.772;19.670;2024-03-02T04:35:36;98225.13;;;5.12
22269;BMP280;11303;50.772;19.670;2024-03-02T04:37:38;98224.38;;;5.11
22269;BMP280;11303;50.772;19.670;2024-03-02T04:39:40;98228.78;;;5.11
22269;BMP280;11303;50.772;19.670;2024-03-02T04:41:41;98222.88;;;5.10
22269;BMP280;11303;50.772;19.670;2024-03-02T04:43:43;98224.69;;;5.10
22269;BMP280;11303;50.772;19.670;2024-03-02T04:45:44;98222.00;;;5.06
22269;BMP280;11303;50.772;19.670;2024-03-02T04:47:46;98225.19;;;5.03
22269;BMP280;11303;50.772;19.670;2024-03-02T04:49:50;98237.50;;;4.98
22269;BMP280;11303;50.772;19.670;2024-03-02T04:51:52;98229.03;;;4.88
22269;BMP280;11303;50.772;19.670;2024-03-02T04:53:53;98236.91;;;4.83
22269;BMP280;11303;50.772;19.670;2024-03-02T04:55:55;98231.50;;;4.76
22269;BMP280;11303;50.772;19.670;2024-03-02T04:58:19;98225.00;;;4.70
22269;BMP280;11303;50.772;19.670;2024-03-02T05:00:21;98228.94;;;4.67
22269;BMP280;11303;50.772;19.670;2024-03-02T05:02:22;98229.44;;;4.61
22269;BMP280;11303;50.772;19.670;2024-03-02T05:04:24;98238.19;;;4.60
22269;BMP280;11303;50.772;19.670;2024-03-02T05:06:25;98236.53;;;4.55
22269;BMP280;11303;50.772;19.670;2024-03-02T05:08:27;98235.34;;;4.52
22269;BMP280;11303;50.772;19.670;2024-03-02T05:10:29;98235.19;;;4.49
22269;BMP280;11303;50.772;19.670;2024-03-02T05:12:30;98234.28;;;4.45
22269;BMP280;11303;50.772;19.670;2024-03-02T05:14:45;98235.97;;;4.41
22269;BMP280;11303;50.772;19.670;2024-03-02T05:16:47;98245.06;;;4.38
22269;BMP280;11303;50.772;19.670;2024-03-02T05:18:49;98247.47;;;4.34
22269;BMP280;11303;50.772;19.670;2024-03-02T05:20:51;98244.78;;;4.31
22269;BMP280;11303;50.772;19.670;2024-03-02T05:22:52;98243.53;;;4.28
22269;BMP280;11303;50.772;19.670;2024-03-02T05:24:54;98244.91;;;4.26
22269;BMP280;11303;50.772;19.670;2024-03-02T05:26:56;98255.38;;;4.20
22269;BMP280;11303;50.772;19.670;2024-03-02T05:28:57;98255.66;;;4.19
22269;BMP280;11303;50.772;19.670;2024-03-02T05:30:59;98254.75;;;4.15
22269;BMP280;11303;50.772;19.670;2024-03-02T05:33:01;98252.97;;;4.15
22269;BMP280;11303;50.772;19.670;2024-03-02T05:35:03;98250.69;;;4.14
22269;BMP280;11303;50.772;19.670;2024-03-02T05:37:06;98246.28;;;4.14
22269;BMP280;11303;50.772;19.670;2024-03-02T05:39:08;98248.41;;;4.12
22269;BMP280;11303;50.772;19.670;2024-03-02T05:41:11;98254.47;;;4.08
22269;BMP280;11303;50.772;19.670;2024-03-02T05:43:13;98255.50;;;4.07
22269;BMP280;11303;50.772;19.670;2024-03-02T05:45:14;98257.63;;;4.05
22269;BMP280;11303;50.772;19.670;2024-03-02T05:47:18;98263.81;;;4.04
22269;BMP280;11303;50.772;19.670;2024-03-02T05:49:19;98260.50;;;4.03
22269;BMP280;11303;50.772;19.670;2024-03-02T05:51:21;98258.38;;;4.05
22269;BMP280;11303;50.772;19.670;2024-03-02T05:53:22;98263.22;;;4.07
22269;BMP280;11303;50.772;19.670;2024-03-02T05:55:24;98267.75;;;4.10
22269;BMP280;11303;50.772;19.670;2024-03-02T05:57:26;98276.69;;;4.12
22269;BMP280;11303;50.772;19.670;2024-03-02T05:59:40;98278.97;;;4.14
22269;BMP280;11303;50.772;19.670;2024-03-02T06:01:43;98279.44;;;4.16
22269;BMP280;11303;50.772;19.670;2024-03-02T06:03:45;98279.44;;;4.16
22269;BMP280;11303;50.772;19.670;2024-03-02T06:05:47;98277.78;;;4.20
22269;BMP280;11303;50.772;19.670;2024-03-02T06:07:50;98273.38;;;4.20
22269;BMP280;11303;50.772;19.670;2024-03-02T06:09:52;98270.47;;;4.22
22269;BMP280;11303;50.772;19.670;2024-03-02T06:11:54;98279.88;;;4.27
22269;BMP280;11303;50.772;19.670;2024-03-02T06:13:55;98285.16;;;4.30
22269;BMP280;11303;50.772;19.670;2024-03-02T06:15:57;98285.63;;;4.32
22269;BMP280;11303;50.772;19.670;2024-03-02T06:17:59;98288.97;;;4.42
22269;BMP280;11303;50.772;19.670;2024-03-02T06:20:02;98286.97;;;4.47
22269;BMP280;11303;50.772;19.670;2024-03-02T06:22:04;98279.41;;;4.51
22269;BMP280;11303;50.772;19.670;2024-03-02T06:24:05;98289.53;;;4.56
22269;BMP280;11303;50.772;19.670;2024-03-02T06:26:07;98290.75;;;4.59
22269;BMP280;11303;50.772;19.670;2024-03-02T06:28:09;98304.50;;;4.63
22269;BMP280;11303;50.772;19.670;2024-03-02T06:30:11;98301.31;;;4.66
22269;BMP280;11303;50.772;19.670;2024-03-02T06:32:12;98295.72;;;4.72
22269;BMP280;11303;50.772;19.670;2024-03-02T06:34:14;98295.56;;;4.78
22269;BMP280;11303;50.772;19.670;2024-03-02T06:36:15;98289.91;;;4.84
22269;BMP280;11303;50.772;19.670;2024-03-02T06:38:18;98298.25;;;4.90
22269;BMP280;11303;50.772;19.670;2024-03-02T06:40:20;98293.72;;;4.96
22269;BMP280;11303;50.772;19.670;2024-03-02T06:42:23;98290.19;;;5.00
22269;BMP280;11303;50.772;19.670;2024-03-02T06:44:25;98285.78;;;5.01
22269;BMP280;11303;50.772;19.670;2024-03-02T06:46:27;98290.63;;;5.02
22269;BMP280;11303;50.772;19.670;2024-03-02T06:48:28;98280.78;;;5.04
22269;BMP280;11303;50.772;19.670;2024-03-02T06:50:31;98279.53;;;5.10
22269;BMP280;11303;50.772;19.670;2024-03-02T06:52:33;98285.91;;;5.13
22269;BMP280;11303;50.772;19.670;2024-03-02T06:54:34;98293.13;;;5.20
22269;BMP280;11303;50.772;19.670;2024-03-02T06:56:37;98303.91;;;5.22
22269;BMP280;11303;50.772;19.670;2024-03-02T06:58:40;98307.81;;;5.28
22269;BMP280;11303;50.772;19.670;2024-03-02T07:00:42;98302.91;;;5.35
22269;BMP280;11303;50.772;19.670;2024-03-02T07:02:44;98314.88;;;5.40
22269;BMP280;11303;50.772;19.670;2024-03-02T07:04:46;98314.28;;;5.43
22269;BMP280;11303;50.772;19.670;2024-03-02T07:06:48;98310.13;;;5.50
22269;BMP280;11303;50.772;19.670;2024-03-02T07:08:49;98314.03;;;5.57
22269;BMP280;11303;50.772;19.670;2024-03-02T07:10:51;98318.59;;;5.60
22269;BMP280;11303;50.772;19.670;2024-03-02T07:12:53;98306.97;;;5.75
22269;BMP280;11303;50.772;19.670;2024-03-02T07:14:54;98313.69;;;5.88
22269;BMP280;11303;50.772;19.670;2024-03-02T07:17:05;98319.69;;;6.01
22269;BMP280;11303;50.772;19.670;2024-03-02T07:19:07;98323.41;;;6.12
22269;BMP280;11303;50.772;19.670;2024-03-02T07:21:09;98313.19;;;6.16
22269;BMP280;11303;50.772;19.670;2024-03-02T07:23:10;98314.34;;;6.27
22269;BMP280;11303;50.772;19.670;2024-03-02T07:25:12;98319.72;;;6.34
22269;BMP280;11303;50.772;19.670;2024-03-02T07:27:17;98328.47;;;6.42
22269;BMP280;11303;50.772;19.670;2024-03-02T07:29:19;98338.34;;;6.40
22269;BMP280;11303;50.772;19.670;2024-03-02T07:31:21;98343.75;;;6.35
22269;BMP280;11303;50.772;19.670;2024-03-02T07:33:22;98322.84;;;6.40
22269;BMP280;11303;50.772;19.670;2024-03-02T07:35:24;98329.66;;;6.44
22269;BMP280;11303;50.772;19.670;2024-03-02T07:37:29;98336.78;;;6.48
22269;BMP280;11303;50.772;19.670;2024-03-02T07:39:30;98334.44;;;6.55
22269;BMP280;11303;50.772;19.670;2024-03-02T07:41:32;98328.22;;;6.68
22269;BMP280;11303;50.772;19.670;2024-03-02T07:43:34;98329.84;;;6.73
22269;BMP280;11303;50.772;19.670;2024-03-02T07:45:36;98326.41;;;6.81
22269;BMP280;11303;50.772;19.670;2024-03-02T07:47:37;98324.06;;;6.88
22269;BMP280;11303;50.772;19.670;2024-03-02T07:49:39;98327.09;;;6.90
22269;BMP280;11303;50.772;19.670;2024-03-02T07:51:41;98329.47;;;6.95
22269;BMP280;11303;50.772;19.670;2024-03-02T07:53:43;98341.75;;;6.98
22269;BMP280;11303;50.772;19.670;2024-03-02T07:55:47;98349.63;;;7.02
22269;BMP280;11303;50.772;19.670;2024-03-02T07:57:49;98366.50;;;7.12
22269;BMP280;11303;50.772;19.670;2024-03-02T07:59:51;98360.59;;;7.11
22269;BMP280;11303;50.772;19.670;2024-03-02T08:01:52;98347.25;;;7.21
22269;BMP280;11303;50.772;19.670;2024-03-02T08:04:01;98345.09;;;7.36
22269;BMP280;11303;50.772;19.670;2024-03-02T08:06:04;98341.22;;;7.42
22269;BMP280;11303;50.772;19.670;2024-03-02T08:08:06;98347.88;;;7.55
22269;BMP280;11303;50.772;19.670;2024-03-02T08:10:08;98355.75;;;7.71
22269;BMP280;11303;50.772;19.670;2024-03-02T08:12:09;98355.75;;;7.71
22269;BMP280;11303;50.772;19.670;2024-03-02T08:14:11;98359.63;;;7.65
22269;BMP280;11303;50.772;19.670;2024-03-02T08:16:14;98358.31;;;7.71
22269;BMP280;11303;50.772;19.670;2024-03-02T08:18:16;98368.56;;;7.80
22269;BMP280;11303;50.772;19.670;2024-03-02T08:20:17;98363.59;;;7.87
22269;BMP280;11303;50.772;19.670;2024-03-02T08:22:20;98366.63;;;7.77
22269;BMP280;11303;50.772;19.670;2024-03-02T08:24:21;98374.81;;;7.79
22269;BMP280;11303;50.772;19.670;2024-03-02T08:26:23;98369.28;;;7.93
22269;BMP280;11303;50.772;19.670;2024-03-02T08:28:25;98370.41;;;8.08
22269;BMP280;11303;50.772;19.670;2024-03-02T08:30:26;98372.63;;;8.22
22269;BMP280;11303;50.772;19.670;2024-03-02T08:32:28;98370.66;;;8.31
22269;BMP280;11303;50.772;19.670;2024-03-02T08:34:30;98367.34;;;8.30
22269;BMP280;11303;50.772;19.670;2024-03-02T08:36:31;98361.88;;;8.20
22269;BMP280;11303;50.772;19.670;2024-03-02T08:38:33;98369.41;;;8.12
22269;BMP280;11303;50.772;19.670;2024-03-02T08:40:34;98374.84;;;8.07
22269;BMP280;11303;50.772;19.670;2024-03-02T08:42:36;98375.78;;;8.15
22269;BMP280;11303;50.772;19.670;2024-03-02T08:44:38;98371.56;;;8.23
22269;BMP280;11303;50.772;19.670;2024-03-02T08:46:40;98367.06;;;8.35
22269;BMP280;11303;50.772;19.670;2024-03-02T08:48:41;98371.78;;;8.46
22269;BMP280;11303;50.772;19.670;2024-03-02T08:50:43;98371.03;;;8.45
22269;BMP280;11303;50.772;19.670;2024-03-02T08:52:45;98374.00;;;8.60
22269;BMP280;11303;50.772;19.670;2024-03-02T08:54:46;98371.69;;;8.70
22269;BMP280;11303;50.772;19.670;2024-03-02T08:56:49;98382.09;;;8.74
22269;BMP280;11303;50.772;19.670;2024-03-02T08:58:52;98376.53;;;8.88
22269;BMP280;11303;50.772;19.670;2024-03-02T09:00:53;98380.72;;;8.92
22269;BMP280;11303;50.772;19.670;2024-03-02T09:02:55;98376.69;;;8.95
22269;BMP280;11303;50.772;19.670;2024-03-02T09:04:57;98380.22;;;8.87
22269;BMP280;11303;50.772;19.670;2024-03-02T09:06:59;98386.41;;;8.82
22269;BMP280;11303;50.772;19.670;2024-03-02T09:09:01;98383.13;;;8.85
22269;BMP280;11303;50.772;19.670;2024-03-02T09:11:03;98377.78;;;8.78
22269;BMP280;11303;50.772;19.670;2024-03-02T09:13:05;98381.81;;;8.91
22269;BMP280;11303;50.772;19.670;2024-03-02T09:15:07;98375.53;;;8.92
22269;BMP280;11303;50.772;19.670;2024-03-02T09:17:09;98372.59;;;8.94
22269;BMP280;11303;50.772;19.670;2024-03-02T09:19:12;98379.97;;;8.92
22269;BMP280;11303;50.772;19.670;2024-03-02T09:21:13;98380.38;;;8.94
22269;BMP280;11303;50.772;19.670;2024-03-02T09:23:16;98381.13;;;8.94
22269;BMP280;11303;50.772;19.670;2024-03-02T09:25:18;98383.22;;;9.05
22269;BMP280;11303;50.772;19.670;2024-03-02T09:27:20;98379.88;;;9.04
22269;BMP280;11303;50.772;19.670;2024-03-02T09:29:22;98372.19;;;9.08
22269;BMP280;11303;50.772;19.670;2024-03-02T09:31:23;98379.63;;;9.09
22269;BMP280;11303;50.772;19.670;2024-03-02T09:33:26;98376.47;;;9.16
22269;BMP280;11303;50.772;19.670;2024-03-02T09:35:28;98382.88;;;9.22
22269;BMP280;11303;50.772;19.670;2024-03-02T09:37:29;98378.44;;;9.23
22269;BMP280;11303;50.772;19.670;2024-03-02T09:39:31;98390.66;;;9.22
22269;BMP280;11303;50.772;19.670;2024-03-02T09:41:33;98379.59;;;9.25
22269;BMP280;11303;50.772;19.670;2024-03-02T09:43:35;98377.53;;;9.31
22269;BMP280;11303;50.772;19.670;2024-03-02T09:45:36;98382.19;;;9.25
22269;BMP280;11303;50.772;19.670;2024-03-02T09:47:38;98390.84;;;9.29
22269;BMP280;11303;50.772;19.670;2024-03-02T09:49:39;98391.66;;;9.33
22269;BMP280;11303;50.772;19.670;2024-03-02T09:51:47;98393.09;;;9.31
22269;BMP280;11303;50.772;19.670;2024-03-02T09:53:50;98400.34;;;9.25
22269;BMP280;11303;50.772;19.670;2024-03-02T09:55:51;98398.44;;;9.22
22269;BMP280;11303;50.772;19.670;2024-03-02T09:57:53;98407.34;;;9.21
22269;BMP280;11303;50.772;19.670;2024-03-02T09:59:55;98406.53;;;9.05
22269;BMP280;11303;50.772;19.670;2024-03-02T10:02:00;98404.22;;;9.00
22269;BMP280;11303;50.772;19.670;2024-03-02T10:04:02;98400.97;;;8.87
22269;BMP280;11303;50.772;19.670;2024-03-02T10:06:20;98402.63;;;8.79
22269;BMP280;11303;50.772;19.670;2024-03-02T10:08:22;98394.06;;;8.79
22269;BMP280;11303;50.772;19.670;2024-03-02T10:10:23;98408.97;;;8.82
22269;BMP280;11303;50.772;19.670;2024-03-02T10:12:25;98410.50;;;8.83
22269;BMP280;11303;50.772;19.670;2024-03-02T10:14:27;98402.13;;;8.89
22269;BMP280;11303;50.772;19.670;2024-03-02T10:16:28;98407.06;;;8.94
22269;BMP280;11303;50.772;19.670;2024-03-02T10:18:30;98410.00;;;8.93
22269;BMP280;11303;50.772;19.670;2024-03-02T10:20:32;98407.91;;;8.99
22269;BMP280;11303;50.772;19.670;2024-03-02T10:22:35;98395.53;;;9.08
22269;BMP280;11303;50.772;19.670;2024-03-02T10:24:39;98394.28;;;9.18
22269;BMP280;11303;50.772;19.670;2024-03-02T10:26:41;98384.72;;;9.22
22269;BMP280;11303;50.772;19.670;2024-03-02T10:28:47;98389.22;;;9.25
22269;BMP280;11303;50.772;19.670;2024-03-02T10:30:53;98394.34;;;9.37
22269;BMP280;11303;50.772;19.670;2024-03-02T10:32:55;98384.44;;;9.43
22269;BMP280;11303;50.772;19.670;2024-03-02T10:34:57;98387.44;;;9.45
22269;BMP280;11303;50.772;19.670;2024-03-02T10:36:59;98388.34;;;9.52
22269;BMP280;11303;50.772;19.670;2024-03-02T10:39:05;98388.69;;;9.51
22269;BMP280;11303;50.772;19.670;2024-03-02T10:41:07;98393.16;;;9.70
22269;BMP280;11303;50.772;19.670;2024-03-02T10:43:10;98401.59;;;9.83
22269;BMP280;11303;50.772;19.670;2024-03-02T10:45:15;98398.53;;;9.77
22269;BMP280;11303;50.772;19.670;2024-03-02T10:47:19;98397.34;;;9.75
22269;BMP280;11303;50.772;19.670;2024-03-02T10:49:22;98390.22;;;9.71
22269;BMP280;11303;50.772;19.670;2024-03-02T10:51:25;98394.44;;;9.60
22269;BMP280;11303;50.772;19.670;2024-03-02T10:53:27;98392.59;;;9.61
22269;BMP280;11303;50.772;19.670;2024-03-02T10:55:29;98386.72;;;9.64
22269;BMP280;11303;50.772;19.670;2024-03-02T10:59:53;98397.97;;;9.68
22269;BMP280;11303;50.772;19.670;2024-03-02T11:01:59;98393.78;;;9.63
22269;BMP280;11303;50.772;19.670;2024-03-02T11:04:08;98390.19;;;9.68
22269;BMP280;11303;50.772;19.670;2024-03-02T11:06:11;98385.81;;;9.72
22269;BMP280;11303;50.772;19.670;2024-03-02T11:08:18;98386.84;;;9.67
22269;BMP280;11303;50.772;19.670;2024-03-02T11:10:24;98388.19;;;9.61
22269;BMP280;11303;50.772;19.670;2024-03-02T11:12:36;98381.09;;;9.58
22269;BMP280;11303;50.772;19.670;2024-03-02T11:14:42;98390.09;;;9.64
22269;BMP280;11303;50.772;19.670;2024-03-02T11:16:47;98386.41;;;9.65
22269;BMP280;11303;50.772;19.670;2024-03-02T11:18:49;98386.28;;;9.58
22269;BMP280;11303;50.772;19.670;2024-03-02T11:20:51;98381.03;;;9.74
22269;BMP280;11303;50.772;19.670;2024-03-02T11:22:53;98376.41;;;9.83
22269;BMP280;11303;50.772;19.670;2024-03-02T11:24:55;98383.00;;;9.81
22269;BMP280;11303;50.772;19.670;2024-03-02T11:26:57;98381.28;;;9.88
22269;BMP280;11303;50.772;19.670;2024-03-02T11:28:59;98379.94;;;9.95
22269;BMP280;11303;50.772;19.670;2024-03-02T11:31:01;98385.31;;;10.05
22269;BMP280;11303;50.772;19.670;2024-03-02T11:33:04;98380.84;;;10.22
22269;BMP280;11303;50.772;19.670;2024-03-02T11:35:14;98379.28;;;10.40
22269;BMP280;11303;50.772;19.670;2024-03-02T11:37:17;98372.03;;;10.49
22269;BMP280;11303;50.772;19.670;2024-03-02T11:39:19;98375.06;;;10.32
22269;BMP280;11303;50.772;19.670;2024-03-02T11:41:21;98372.06;;;10.30
22269;BMP280;11303;50.772;19.670;2024-03-02T11:43:22;98373.00;;;10.41
22269;BMP280;11303;50.772;19.670;2024-03-02T11:45:26;98369.53;;;10.57
22269;BMP280;11303;50.772;19.670;2024-03-02T11:47:31;98368.50;;;10.61
22269;BMP280;11303;50.772;19.670;2024-03-02T11:49:42;98365.97;;;10.65